Halsey, Nebraska
Current Conditions -  °F | °C
As of 3:35 AM on Saturday 25 Oct 2014 (Local Time) from KTIF Reporting Station
Clear Clear  
Wind Chill: 42°   Ceiling: Unl
Heat Index: 42°   Visibility: 10mi
Dew Point: 34°   Wind: 0mph
Humidity: 75%   Direction: NA
Pressure: 30.1"   Gusts: NA
Location:  41.9°N, 100.27°W
Report Text: KTIF 250835Z AUTO 00000KT 10SM CLR 05/01 A3010 RMK AO2 T00530012
Loading
Personal Weather Stations






























Interactive Weather Map New forecast layout! Learn more

10-Day Weather Forecast

Advertisements
Track Severe Weather on mobile